createdAt,value
2023-04-21T00:00:39.631Z,45
2023-04-21T00:01:47.976Z,45
2023-04-21T00:02:56.387Z,45
2023-04-21T00:04:04.959Z,44.400002
2023-04-21T00:05:13.235Z,44.400002
2023-04-21T00:06:21.523Z,44.400002
2023-04-21T00:07:30.093Z,46.099998
2023-04-21T00:08:38.429Z,46.099998
2023-04-21T00:09:46.782Z,46.099998
2023-04-21T00:10:55.342Z,46.700001
2023-04-21T00:12:03.672Z,46.700001
2023-04-21T00:13:12.005Z,46.700001
2023-04-21T00:14:20.548Z,46.299999
2023-04-21T00:15:28.883Z,46.299999
2023-04-21T00:16:37.292Z,46.299999
2023-04-21T00:17:45.810Z,45.299999
2023-04-21T00:18:54.115Z,45.299999
2023-04-21T00:20:02.453Z,45.299999
2023-04-21T00:21:10.995Z,42.700001
2023-04-21T00:22:19.333Z,42.700001
2023-04-21T00:23:27.664Z,42.700001
2023-04-21T00:24:36.227Z,45.099998
2023-04-21T00:25:44.556Z,45.099998
2023-04-21T00:26:53.205Z,45.099998
2023-04-21T00:28:01.452Z,43.299999
2023-04-21T00:29:09.790Z,43.299999
2023-04-21T00:30:18.136Z,43.299999
2023-04-21T00:31:26.722Z,45.5
2023-04-21T00:32:35.097Z,45.5
2023-04-21T00:33:43.395Z,45.5
2023-04-21T00:34:51.926Z,43.700001
2023-04-21T00:36:00.271Z,43.700001
2023-04-21T00:37:08.626Z,43.700001
2023-04-21T00:38:17.167Z,45.700001
2023-04-21T00:39:26.022Z,45.700001
2023-04-21T00:40:34.352Z,45.700001
2023-04-21T00:41:42.903Z,43.5
2023-04-21T00:42:51.287Z,43.5
2023-04-21T00:43:59.594Z,43.5
2023-04-21T00:45:08.140Z,39.700001
2023-04-21T00:46:16.501Z,39.700001
2023-04-21T00:47:24.846Z,39.700001
2023-04-21T00:48:33.405Z,38.700001
2023-04-21T00:49:41.756Z,38.700001
2023-04-21T00:50:50.079Z,38.700001
2023-04-21T00:51:58.651Z,38.599998
2023-04-21T00:53:06.984Z,38.599998
2023-04-21T00:54:15.349Z,38.599998
2023-04-21T00:55:23.893Z,43.700001
2023-04-21T00:56:32.226Z,43.700001
2023-04-21T00:57:40.569Z,43.700001
2023-04-21T00:58:49.139Z,39.5
2023-04-21T00:59:57.430Z,39.5
2023-04-21T01:01:05.793Z,39.5
2023-04-21T01:02:14.370Z,39.400002
2023-04-21T01:03:22.864Z,39.400002
2023-04-21T01:04:31.018Z,39.400002
2023-04-21T01:05:39.556Z,41.799999
2023-04-21T01:06:47.905Z,41.799999
2023-04-21T01:07:56.227Z,41.799999
2023-04-21T01:09:04.807Z,40.799999
2023-04-21T01:10:13.104Z,40.799999
2023-04-21T01:11:21.446Z,40.799999
2023-04-21T01:12:29.985Z,40.099998
2023-04-21T01:13:38.313Z,40.099998
2023-04-21T01:14:46.667Z,40.099998
2023-04-21T01:15:55.193Z,43
2023-04-21T01:17:03.661Z,43
2023-04-21T01:18:11.942Z,43
2023-04-21T01:19:20.554Z,40
2023-04-21T01:20:28.737Z,40
2023-04-21T01:21:37.081Z,40
2023-04-21T01:22:45.629Z,39.5
2023-04-21T01:23:53.961Z,39.5
2023-04-21T01:25:02.290Z,39.5
2023-04-21T01:26:10.867Z,35.200001
2023-04-21T01:27:19.254Z,35.200001
2023-04-21T01:28:27.563Z,35.200001
2023-04-21T01:29:36.100Z,39.299999
2023-04-21T01:30:44.457Z,39.299999
2023-04-21T01:31:52.821Z,39.299999
2023-04-21T01:33:01.344Z,37.599998
2023-04-21T01:34:09.651Z,37.599998
2023-04-21T01:35:18.002Z,37.599998
2023-04-21T01:36:26.552Z,37.599998
2023-04-21T01:37:34.897Z,37.599998
2023-04-21T01:38:43.235Z,37.599998
2023-04-21T01:39:51.790Z,37.299999
2023-04-21T01:41:00.159Z,37.299999
2023-04-21T01:42:08.483Z,37.299999
2023-04-21T01:43:17.036Z,38.299999
2023-04-21T01:44:25.367Z,38.299999
2023-04-21T01:45:33.695Z,38.299999
2023-04-21T01:46:42.294Z,41.299999
2023-04-21T01:47:50.673Z,41.299999
2023-04-21T01:48:58.908Z,41.299999
2023-04-21T01:50:07.480Z,47
2023-04-21T01:51:15.842Z,47
2023-04-21T01:52:24.185Z,47
2023-04-21T01:53:32.725Z,43.799999
2023-04-21T01:54:41.058Z,43.799999
2023-04-21T01:55:49.428Z,43.799999
2023-04-21T01:56:58.057Z,40.5
2023-04-21T01:58:06.339Z,40.5
2023-04-21T01:59:14.676Z,40.5
2023-04-21T02:00:23.213Z,40.299999
2023-04-21T02:01:31.585Z,40.299999
2023-04-21T02:02:40.044Z,40.299999
2023-04-21T02:03:48.551Z,42.5
2023-04-21T02:04:56.801Z,42.5
2023-04-21T02:06:05.157Z,42.5
2023-04-21T02:07:13.702Z,37.599998
2023-04-21T02:08:22.046Z,37.599998
2023-04-21T02:09:30.368Z,37.599998
2023-04-21T02:10:38.920Z,37.700001
2023-04-21T02:11:47.254Z,37.700001
2023-04-21T02:12:55.586Z,37.700001
2023-04-21T02:14:04.145Z,40.299999
2023-04-21T02:15:12.458Z,40.299999
2023-04-21T02:16:20.853Z,40.299999
2023-04-21T02:17:29.381Z,37.900002
2023-04-21T02:18:37.716Z,37.900002
2023-04-21T02:19:46.028Z,37.900002
2023-04-21T02:20:54.585Z,34.700001
2023-04-21T02:22:02.917Z,34.700001
2023-04-21T02:23:11.260Z,34.700001
2023-04-21T02:24:19.793Z,37.5
2023-04-21T02:25:28.132Z,37.5
2023-04-21T02:26:36.461Z,37.5
2023-04-21T02:27:44.999Z,40.599998
2023-04-21T02:28:53.355Z,40.599998
2023-04-21T02:30:01.670Z,40.599998
2023-04-21T02:31:10.235Z,46.299999
2023-04-21T02:32:25.727Z,46.299999
2023-04-21T02:33:26.869Z,46.299999
2023-04-21T02:34:35.431Z,41.900002
2023-04-21T02:35:43.738Z,41.900002
2023-04-21T02:36:52.074Z,41.900002
2023-04-21T02:38:00.606Z,37
2023-04-21T02:39:08.940Z,37
2023-04-21T02:40:17.303Z,37
2023-04-21T02:41:25.845Z,35
2023-04-21T02:42:34.183Z,35
2023-04-21T02:43:42.518Z,35
2023-04-21T02:44:51.060Z,34.099998
2023-04-21T02:45:59.403Z,34.099998
2023-04-21T02:47:07.761Z,34.099998
2023-04-21T02:48:16.330Z,43.900002
2023-04-21T02:49:24.669Z,43.900002
2023-04-21T02:50:33.034Z,43.900002
2023-04-21T02:51:41.547Z,40
2023-04-21T02:52:49.901Z,40
2023-04-21T02:53:58.211Z,40
2023-04-21T02:55:06.761Z,45.700001
2023-04-21T02:56:15.091Z,45.700001
2023-04-21T02:57:23.421Z,45.700001
2023-04-21T02:58:31.958Z,40
2023-04-21T02:59:40.314Z,40
2023-04-21T03:00:48.690Z,40
2023-04-21T03:01:57.201Z,40.599998
2023-04-21T03:03:05.645Z,40.599998
2023-04-21T03:04:14.008Z,40.599998
2023-04-21T03:05:22.458Z,38.599998
2023-04-21T03:06:30.840Z,38.599998
2023-04-21T03:07:39.115Z,38.599998
2023-04-21T03:08:47.676Z,40.099998
2023-04-21T03:09:56.004Z,40.099998
2023-04-21T03:11:04.335Z,40.099998
2023-04-21T03:12:12.914Z,38.799999
2023-04-21T03:13:21.269Z,38.799999
2023-04-21T03:14:29.638Z,38.799999
2023-04-21T03:15:38.161Z,35.700001
2023-04-21T03:16:46.530Z,35.700001
2023-04-21T03:17:54.886Z,35.700001
2023-04-21T03:19:03.411Z,40.099998
2023-04-21T03:20:11.737Z,40.099998
2023-04-21T03:21:20.095Z,40.099998
2023-04-21T03:22:28.653Z,39.299999
2023-04-21T03:23:36.972Z,39.299999
2023-04-21T03:24:45.330Z,39.299999
2023-04-21T03:25:53.876Z,37.099998
2023-04-21T03:27:02.206Z,37.099998
2023-04-21T03:28:10.555Z,37.099998
2023-04-21T03:29:19.221Z,38.299999
2023-04-21T03:30:27.448Z,38.299999
2023-04-21T03:31:35.841Z,38.299999
2023-04-21T03:32:44.362Z,38.400002
2023-04-21T03:33:52.679Z,38.400002
2023-04-21T03:35:01.035Z,38.400002
2023-04-21T03:36:09.562Z,36.900002
2023-04-21T03:37:17.912Z,36.900002
2023-04-21T03:38:26.497Z,36.900002
2023-04-21T03:39:34.795Z,35.299999
2023-04-21T03:40:43.115Z,35.299999
2023-04-21T03:41:51.453Z,35.299999
2023-04-21T03:43:00.015Z,29.700001
2023-04-21T03:44:08.356Z,29.700001
2023-04-21T03:45:16.704Z,29.700001
2023-04-21T03:46:25.322Z,31.9
2023-04-21T03:47:33.636Z,31.9
2023-04-21T03:48:41.934Z,31.9
2023-04-21T03:49:50.482Z,37.299999
2023-04-21T03:50:58.822Z,37.299999
2023-04-21T03:52:07.162Z,37.299999
2023-04-21T03:53:15.717Z,36.599998
2023-04-21T03:54:24.123Z,36.599998
2023-04-21T03:55:32.536Z,36.599998
2023-04-21T03:56:41.097Z,38.5
2023-04-21T03:57:49.439Z,38.5
2023-04-21T03:58:57.779Z,38.5
2023-04-21T04:00:06.323Z,38.400002
2023-04-21T04:01:14.649Z,38.400002
2023-04-21T04:02:23.188Z,38.400002
2023-04-21T04:03:31.726Z,45.700001
2023-04-21T04:04:40.040Z,45.700001
2023-04-21T04:05:48.240Z,45.700001
2023-04-21T04:06:56.785Z,43
2023-04-21T04:08:05.133Z,43
2023-04-21T04:09:13.494Z,43
2023-04-21T04:10:22.667Z,41
2023-04-21T04:11:31.205Z,41
2023-04-21T04:12:39.548Z,41
2023-04-21T04:13:48.101Z,42.299999
2023-04-21T04:14:56.421Z,42.299999
2023-04-21T04:16:04.875Z,42.299999
2023-04-21T04:17:13.322Z,51.5
2023-04-21T04:18:21.883Z,51.5
2023-04-21T04:19:30.212Z,51.5
2023-04-21T04:20:38.745Z,44.099998
2023-04-21T04:21:49.022Z,44.099998
2023-04-21T04:22:55.426Z,44.099998
2023-04-21T04:24:03.976Z,43.400002
2023-04-21T04:25:12.329Z,43.400002
2023-04-21T04:26:20.731Z,43.400002
2023-04-21T04:27:29.259Z,45
2023-04-21T04:28:37.613Z,45
2023-04-21T04:29:45.972Z,45
2023-04-21T04:30:54.582Z,45
2023-04-21T04:32:02.929Z,45
2023-04-21T04:33:19.593Z,45
2023-04-21T04:34:28.124Z,44.099998
2023-04-21T04:35:36.464Z,44.099998
2023-04-21T04:36:44.794Z,44.099998
2023-04-21T04:37:53.345Z,41.5
2023-04-21T04:39:01.659Z,41.5
2023-04-21T04:40:10.005Z,41.5
2023-04-21T04:41:18.542Z,46.400002
2023-04-21T04:42:26.893Z,46.400002
2023-04-21T04:43:35.245Z,46.400002
2023-04-21T04:44:43.773Z,46.400002
2023-04-21T04:45:52.122Z,46.400002
2023-04-21T04:47:00.539Z,46.400002
2023-04-21T04:48:09.006Z,41.900002
2023-04-21T04:49:17.342Z,41.900002
2023-04-21T04:50:25.672Z,41.900002
2023-04-21T04:51:34.222Z,43.900002
2023-04-21T04:52:42.543Z,43.900002
2023-04-21T04:53:50.953Z,43.900002
2023-04-21T04:54:59.443Z,44.299999
2023-04-21T04:56:07.807Z,44.299999
2023-04-21T04:57:16.133Z,44.299999
2023-04-21T04:58:24.722Z,48.799999
2023-04-21T04:59:33.003Z,48.799999
2023-04-21T05:00:41.349Z,48.799999
2023-04-21T05:01:49.914Z,46.599998
2023-04-21T05:02:58.433Z,46.599998
2023-04-21T05:04:06.703Z,46.599998
2023-04-21T05:05:15.141Z,40.200001
2023-04-21T05:06:23.453Z,40.200001
2023-04-21T05:07:31.820Z,40.200001
2023-04-21T05:08:40.377Z,41.400002
2023-04-21T05:09:48.735Z,41.400002
2023-04-21T05:10:57.093Z,41.400002
2023-04-21T05:12:05.620Z,45.799999
2023-04-21T05:13:14.010Z,45.799999
2023-04-21T05:14:22.433Z,45.799999
2023-04-21T05:15:30.884Z,39.5
2023-04-21T05:16:39.249Z,39.5
2023-04-21T05:17:47.603Z,39.5
2023-04-21T05:18:56.143Z,44.799999
2023-04-21T05:20:04.476Z,44.799999
2023-04-21T05:21:12.805Z,44.799999
2023-04-21T05:22:21.346Z,38.200001
2023-04-21T05:23:29.692Z,38.200001
2023-04-21T05:24:38.020Z,38.200001
2023-04-21T05:25:46.560Z,40.200001
2023-04-21T05:26:54.909Z,40.200001
2023-04-21T05:28:03.230Z,40.200001
2023-04-21T05:29:11.788Z,36.700001
2023-04-21T05:30:20.140Z,36.700001
2023-04-21T05:31:28.481Z,36.700001
2023-04-21T05:32:37.054Z,38
2023-04-21T05:33:45.349Z,38
2023-04-21T05:34:53.688Z,38
2023-04-21T05:36:02.229Z,38.799999
2023-04-21T05:37:10.562Z,38.799999
2023-04-21T05:38:18.928Z,38.799999
2023-04-21T05:39:27.468Z,37.599998
2023-04-21T05:40:35.797Z,37.599998
2023-04-21T05:41:44.141Z,37.599998
2023-04-21T05:42:52.752Z,34
2023-04-21T05:44:01.072Z,34
2023-04-21T05:45:09.408Z,34
2023-04-21T05:46:18.022Z,33.599998
2023-04-21T05:47:26.373Z,33.599998
2023-04-21T05:48:34.657Z,33.599998
2023-04-21T05:49:43.194Z,35.599998
2023-04-21T05:50:51.544Z,35.599998
2023-04-21T05:51:59.874Z,35.599998
2023-04-21T05:53:08.429Z,36.900002
2023-04-21T05:54:16.979Z,36.900002
2023-04-21T05:55:25.131Z,36.900002
2023-04-21T05:56:33.683Z,30.4
2023-04-21T05:57:42.020Z,30.4
2023-04-21T05:58:50.358Z,30.4
2023-04-21T05:59:58.903Z,32.599998
2023-04-21T06:01:07.260Z,32.599998
2023-04-21T06:02:15.694Z,32.599998
2023-04-21T06:03:24.245Z,35.400002
2023-04-21T06:04:32.614Z,35.400002
2023-04-21T06:05:40.831Z,35.400002
2023-04-21T06:06:49.362Z,34.400002
2023-04-21T06:07:57.718Z,34.400002
2023-04-21T06:09:06.068Z,34.400002
2023-04-21T06:10:14.607Z,30.200001
2023-04-21T06:11:22.948Z,30.200001
2023-04-21T06:12:31.315Z,30.200001
2023-04-21T06:13:41.095Z,28.299999
2023-04-21T06:14:48.193Z,28.299999
2023-04-21T06:15:56.517Z,28.299999
2023-04-21T06:17:05.086Z,28.6
2023-04-21T06:18:13.457Z,28.6
2023-04-21T06:19:21.743Z,28.6
2023-04-21T06:20:30.329Z,28.5
2023-04-21T06:21:38.723Z,28.5
2023-04-21T06:22:47.049Z,28.5
2023-04-21T06:23:55.584Z,25.9
2023-04-21T06:25:03.911Z,25.9
2023-04-21T06:26:12.250Z,25.9
2023-04-21T06:27:20.816Z,29.200001
2023-04-21T06:28:29.138Z,29.200001
2023-04-21T06:29:37.487Z,29.200001
2023-04-21T06:30:46.021Z,28.200001
2023-04-21T06:31:54.424Z,28.200001
2023-04-21T06:33:02.730Z,28.200001
2023-04-21T06:34:11.293Z,22.9
2023-04-21T06:35:19.616Z,22.9
2023-04-21T06:36:27.959Z,22.9
2023-04-21T06:37:36.528Z,26.6
2023-04-21T06:38:44.855Z,26.6
2023-04-21T06:39:53.216Z,26.6
2023-04-21T06:41:01.767Z,23.200001
2023-04-21T06:42:10.116Z,23.200001
2023-04-21T06:43:18.466Z,23.200001
2023-04-21T06:44:26.997Z,26.299999
2023-04-21T06:45:35.325Z,26.299999
2023-04-21T06:46:43.671Z,26.299999
2023-04-21T06:47:52.241Z,22
2023-04-21T06:49:00.549Z,22
2023-04-21T06:50:08.903Z,22
2023-04-21T06:51:17.437Z,24.9
2023-04-21T06:52:25.752Z,24.9
2023-04-21T06:53:34.082Z,24.9
2023-04-21T06:54:42.632Z,24
2023-04-21T06:55:50.987Z,24
2023-04-21T06:56:59.307Z,24
2023-04-21T06:58:07.859Z,23
2023-04-21T06:59:16.221Z,23
2023-04-21T07:00:24.561Z,23
2023-04-21T07:01:33.199Z,24.799999
2023-04-21T07:02:41.481Z,24.799999
2023-04-21T07:03:49.934Z,24.799999
2023-04-21T07:04:58.418Z,25.200001
2023-04-21T07:06:06.786Z,25.200001
2023-04-21T07:07:15.105Z,25.200001
2023-04-21T07:08:23.641Z,25.1
2023-04-21T07:09:31.973Z,25.1
2023-04-21T07:10:40.303Z,25.1
2023-04-21T07:11:48.861Z,24.4
2023-04-21T07:12:57.195Z,24.4
2023-04-21T07:14:05.518Z,24.4
2023-04-21T07:15:14.061Z,23.200001
2023-04-21T07:16:22.429Z,23.200001
2023-04-21T07:17:30.777Z,23.200001
2023-04-21T07:18:39.278Z,24.1
2023-04-21T07:19:47.620Z,24.1
2023-04-21T07:20:55.962Z,24.1
2023-04-21T07:22:04.523Z,22.700001
2023-04-21T07:23:12.815Z,22.700001
2023-04-21T07:24:21.185Z,22.700001
2023-04-21T07:25:29.733Z,23.1
2023-04-21T07:26:38.075Z,23.1
2023-04-21T07:27:46.423Z,23.1
2023-04-21T07:28:54.946Z,23.1
2023-04-21T07:30:03.299Z,23.1
2023-04-21T07:31:11.632Z,23.1
2023-04-21T07:32:20.169Z,24.5
2023-04-21T07:33:28.484Z,24.5
2023-04-21T07:34:36.825Z,24.5
2023-04-21T07:35:45.344Z,19.5
2023-04-21T07:36:53.690Z,19.5
2023-04-21T07:38:02.044Z,19.5
2023-04-21T07:39:10.683Z,20.6
2023-04-21T07:40:18.927Z,20.6
2023-04-21T07:41:27.267Z,20.6
2023-04-21T07:42:35.816Z,19
2023-04-21T07:43:44.164Z,19
2023-04-21T07:44:52.480Z,19
2023-04-21T07:46:01.069Z,19.4
2023-04-21T07:47:09.365Z,19.4
2023-04-21T07:48:17.742Z,19.4
2023-04-21T07:49:26.255Z,20.700001
2023-04-21T07:50:34.596Z,20.700001
2023-04-21T07:51:42.933Z,20.700001
2023-04-21T07:52:51.483Z,27.6
2023-04-21T07:53:59.852Z,27.6
2023-04-21T07:55:08.154Z,27.6
2023-04-21T07:56:16.727Z,21.299999
2023-04-21T07:57:25.071Z,21.299999
2023-04-21T07:58:33.396Z,21.299999
2023-04-21T07:59:41.936Z,18
2023-04-21T08:00:50.297Z,18
2023-04-21T08:01:58.642Z,18
2023-04-21T08:03:07.254Z,18.1
2023-04-21T08:04:15.617Z,18.1
2023-04-21T08:05:24.298Z,18.1
2023-04-21T08:06:32.428Z,34.099998
2023-04-21T08:07:40.744Z,34.099998
2023-04-21T08:08:49.063Z,34.099998
2023-04-21T08:09:57.637Z,30.5
2023-04-21T08:11:05.945Z,30.5
2023-04-21T08:12:14.295Z,30.5
2023-04-21T08:13:22.823Z,18.5
2023-04-21T08:14:31.154Z,18.5
2023-04-21T08:15:39.515Z,18.5
2023-04-21T08:16:48.124Z,18.299999
2023-04-21T08:17:56.410Z,18.299999
2023-04-21T08:19:04.783Z,18.299999
2023-04-21T08:20:13.319Z,17.200001
2023-04-21T08:21:21.729Z,17.200001
2023-04-21T08:22:30.011Z,17.200001
2023-04-21T08:23:38.580Z,21.6
2023-04-21T08:24:46.895Z,21.6
2023-04-21T08:25:55.290Z,21.6
2023-04-21T08:27:03.763Z,23.1
2023-04-21T08:28:12.137Z,23.1
2023-04-21T08:29:20.466Z,23.1
2023-04-21T08:30:29.089Z,19.6
2023-04-21T08:31:37.483Z,19.6
2023-04-21T08:32:45.754Z,19.6
2023-04-21T08:34:01.561Z,19.799999
2023-04-21T08:35:02.700Z,19.799999
2023-04-21T08:36:18.400Z,19.799999
2023-04-21T08:37:19.531Z,15.5
2023-04-21T08:38:27.852Z,15.5
2023-04-21T08:39:36.194Z,15.5
2023-04-21T08:40:44.763Z,17.9
2023-04-21T08:41:53.126Z,17.9
2023-04-21T08:43:01.476Z,17.9
2023-04-21T08:44:09.995Z,14.6
2023-04-21T08:45:18.343Z,14.6
2023-04-21T08:46:26.715Z,14.6
2023-04-21T08:47:35.270Z,16.799999
2023-04-21T08:48:43.587Z,16.799999
2023-04-21T08:49:51.946Z,16.799999
2023-04-21T08:51:00.495Z,12.4
2023-04-21T08:52:08.836Z,12.4
2023-04-21T08:53:17.193Z,12.4
2023-04-21T08:54:25.976Z,13.1
2023-04-21T08:55:34.094Z,13.1
2023-04-21T08:56:42.451Z,13.1
2023-04-21T08:57:51.028Z,13
2023-04-21T08:58:59.353Z,13
2023-04-21T09:00:08.250Z,13
2023-04-21T09:01:16.276Z,13.2
2023-04-21T09:02:24.693Z,13.2
2023-04-21T09:03:33.059Z,13.2
2023-04-21T09:04:41.688Z,12.8
2023-04-21T09:05:50.131Z,12.8
2023-04-21T09:06:58.185Z,12.8
2023-04-21T09:08:06.700Z,10.5
2023-04-21T09:09:15.061Z,10.5
2023-04-21T09:10:23.429Z,10.5
2023-04-21T09:11:31.963Z,13.3
2023-04-21T09:12:40.319Z,13.3
2023-04-21T09:13:48.743Z,13.3
2023-04-21T09:14:57.316Z,11.8
2023-04-21T09:16:08.164Z,11.8
2023-04-21T09:17:14.136Z,11.8
2023-04-21T09:18:22.574Z,11.4
2023-04-21T09:19:30.917Z,11.4
2023-04-21T09:20:39.257Z,11.4
2023-04-21T09:21:47.800Z,11.7
2023-04-21T09:22:56.152Z,11.7
2023-04-21T09:24:04.483Z,11.7
2023-04-21T09:25:13.023Z,12.1
2023-04-21T09:26:21.375Z,12.1
2023-04-21T09:27:29.714Z,12.1
2023-04-21T09:28:38.263Z,10
2023-04-21T09:29:46.640Z,10
2023-04-21T09:30:54.964Z,10
2023-04-21T09:32:03.502Z,9.5
2023-04-21T09:33:24.911Z,9.5
2023-04-21T09:34:20.170Z,9.5
2023-04-21T09:35:28.711Z,8.9
2023-04-21T09:36:37.056Z,8.9
2023-04-21T09:37:45.399Z,8.9
2023-04-21T09:39:03.699Z,11.6
2023-04-21T09:40:04.631Z,11.6
2023-04-21T09:41:10.617Z,11.6
2023-04-21T09:42:19.164Z,9.6
2023-04-21T09:43:27.500Z,9.6
2023-04-21T09:44:43.289Z,9.6
2023-04-21T09:45:44.414Z,8.6
2023-04-21T09:46:52.810Z,8.6
2023-04-21T09:48:01.069Z,8.6
2023-04-21T09:49:09.650Z,9.1
2023-04-21T09:51:37.207Z,9.1
2023-04-21T09:52:34.862Z,9.4
2023-04-21T09:53:43.218Z,9.4
2023-04-21T09:54:51.561Z,9.4
2023-04-21T09:56:00.120Z,10.5
2023-04-21T09:57:08.454Z,10.5
2023-04-21T09:58:16.775Z,10.5
2023-04-21T09:59:25.341Z,8.2
2023-04-21T10:00:33.666Z,8.2
2023-04-21T10:01:42.046Z,8.2
2023-04-21T10:02:50.655Z,8.3
2023-04-21T10:03:59.010Z,8.3
2023-04-21T10:05:07.306Z,8.3
2023-04-21T10:06:15.910Z,8.8
2023-04-21T10:07:24.159Z,8.8
2023-04-21T10:08:32.507Z,8.8
2023-04-21T10:09:41.038Z,7.5
2023-04-21T10:10:49.370Z,7.5
2023-04-21T10:11:57.727Z,7.5
2023-04-21T10:13:06.246Z,8.3
2023-04-21T10:14:14.623Z,8.3
2023-04-21T10:15:22.935Z,8.3
2023-04-21T10:16:31.519Z,10.7
2023-04-21T10:17:39.832Z,10.7
2023-04-21T10:18:48.179Z,10.7
2023-04-21T10:19:56.693Z,7.5
2023-04-21T10:21:05.058Z,7.5
2023-04-21T10:22:13.393Z,7.5
2023-04-21T10:23:21.950Z,10.2
2023-04-21T10:24:30.279Z,10.2
2023-04-21T10:25:38.633Z,10.2
2023-04-21T10:26:47.196Z,8.9
2023-04-21T10:27:55.571Z,8.9
2023-04-21T10:29:04.010Z,8.9
2023-04-21T10:30:12.511Z,10.1
2023-04-21T10:31:20.887Z,10.1
2023-04-21T10:32:29.323Z,10.1
2023-04-21T10:33:37.928Z,8.8
2023-04-21T10:34:46.296Z,8.8
2023-04-21T10:35:54.630Z,8.8
2023-04-21T10:37:03.177Z,10.1
2023-04-21T10:38:11.536Z,10.1
2023-04-21T10:39:19.998Z,10.1
2023-04-21T10:40:42.296Z,9.2
2023-04-21T10:41:36.751Z,9.2
2023-04-21T10:42:45.059Z,9.2
2023-04-21T10:43:53.618Z,7.5
2023-04-21T10:45:01.931Z,7.5
2023-04-21T10:46:10.268Z,7.5
2023-04-21T10:47:18.820Z,8.8
2023-04-21T10:48:27.158Z,8.8
2023-04-21T10:49:35.529Z,8.8
2023-04-21T10:50:44.031Z,8.5
2023-04-21T10:51:52.367Z,8.5
2023-04-21T10:53:00.748Z,8.5
2023-04-21T10:54:09.310Z,7.4
2023-04-21T10:55:17.627Z,7.4
2023-04-21T10:56:25.971Z,7.4
2023-04-21T10:57:34.500Z,10.8
2023-04-21T10:58:43.419Z,10.8
2023-04-21T10:59:51.761Z,10.8
2023-04-21T11:01:00.324Z,8
2023-04-21T11:02:08.716Z,8
2023-04-21T11:03:17.108Z,8
2023-04-21T11:04:26.056Z,8.8
2023-04-21T11:05:33.917Z,8.8
2023-04-21T11:06:42.224Z,8.8
2023-04-21T11:07:50.841Z,10
2023-04-21T11:08:59.180Z,10
2023-04-21T11:10:07.531Z,10
2023-04-21T11:11:16.074Z,6.2
2023-04-21T11:12:24.392Z,6.2
2023-04-21T11:13:32.723Z,6.2
2023-04-21T11:14:41.269Z,9
2023-04-21T11:15:49.602Z,9
2023-04-21T11:16:57.981Z,9
2023-04-21T11:18:06.535Z,8.6
2023-04-21T11:19:14.806Z,8.6
2023-04-21T11:20:23.156Z,8.6
2023-04-21T11:21:31.747Z,6.5
2023-04-21T11:22:40.047Z,6.5
2023-04-21T11:23:48.402Z,6.5
2023-04-21T11:24:56.942Z,6.2
2023-04-21T11:26:05.266Z,6.2
2023-04-21T11:27:13.593Z,6.2
2023-04-21T11:28:22.176Z,9
2023-04-21T11:29:30.491Z,9
2023-04-21T11:30:38.835Z,9
2023-04-21T11:31:47.359Z,9.1
2023-04-21T11:32:55.722Z,9.1
2023-04-21T11:34:04.103Z,9.1
2023-04-21T11:35:12.631Z,5.4
2023-04-21T11:36:21.154Z,5.4
2023-04-21T11:37:29.513Z,5.4
2023-04-21T11:38:38.025Z,7.4
2023-04-21T11:39:46.387Z,7.4
2023-04-21T11:40:54.739Z,7.4
2023-04-21T11:42:03.308Z,6
2023-04-21T11:43:11.649Z,6
2023-04-21T11:44:20.018Z,6
2023-04-21T11:45:28.542Z,7
2023-04-21T11:46:36.919Z,7
2023-04-21T11:47:45.237Z,7
2023-04-21T11:48:53.764Z,5.5
2023-04-21T11:50:02.098Z,5.5
2023-04-21T11:51:10.464Z,5.5
2023-04-21T11:52:19.017Z,10.9
2023-04-21T11:53:27.377Z,10.9
2023-04-21T11:54:35.745Z,10.9
2023-04-21T11:55:44.283Z,6.8
2023-04-21T11:56:52.626Z,6.8
2023-04-21T11:58:01.029Z,6.8
2023-04-21T11:59:09.584Z,7
2023-04-21T12:00:17.901Z,7
2023-04-21T12:01:26.253Z,7
2023-04-21T12:02:34.870Z,6.6
2023-04-21T12:03:43.259Z,6.6
2023-04-21T12:04:51.637Z,6.6
2023-04-21T12:06:00.411Z,6.6
2023-04-21T12:07:08.381Z,6.6
2023-04-21T12:08:16.753Z,6.6
2023-04-21T12:09:25.293Z,5.4
2023-04-21T12:10:33.628Z,5.4
2023-04-21T12:11:41.945Z,5.4
2023-04-21T12:12:50.511Z,5.2
2023-04-21T12:13:58.827Z,5.2
2023-04-21T12:15:07.158Z,5.2
2023-04-21T12:16:15.758Z,6.1
2023-04-21T12:17:24.059Z,6.1
2023-04-21T12:18:32.742Z,6.1
2023-04-21T12:19:41.016Z,7.5
2023-04-21T12:20:49.260Z,7.5
2023-04-21T12:21:57.581Z,7.5
2023-04-21T12:23:06.163Z,6.3
2023-04-21T12:24:14.503Z,6.3
2023-04-21T12:25:22.889Z,6.3
2023-04-21T12:26:31.390Z,6.9
2023-04-21T12:27:39.746Z,6.9
2023-04-21T12:28:48.072Z,6.9
2023-04-21T12:29:56.616Z,7.5
2023-04-21T12:31:05.002Z,7.5
2023-04-21T12:32:13.326Z,7.5
2023-04-21T12:33:21.890Z,5.5
2023-04-21T12:34:30.156Z,5.5
2023-04-21T12:35:38.505Z,5.5
2023-04-21T12:36:47.046Z,9.7
2023-04-21T12:37:55.397Z,9.7
2023-04-21T12:39:03.785Z,9.7
2023-04-21T12:40:12.326Z,5.9
2023-04-21T12:41:20.698Z,5.9
2023-04-21T12:42:29.033Z,5.9
2023-04-21T12:43:37.576Z,6.1
2023-04-21T12:44:45.913Z,6.1
2023-04-21T12:45:54.244Z,6.1
2023-04-21T12:47:02.789Z,5.6
2023-04-21T12:48:11.258Z,5.6
2023-04-21T12:49:19.553Z,5.6
2023-04-21T12:50:28.096Z,7.9
2023-04-21T12:51:36.417Z,7.9
2023-04-21T12:52:44.774Z,7.9
2023-04-21T12:53:53.313Z,9
2023-04-21T12:55:01.664Z,9
2023-04-21T12:56:10.018Z,9
2023-04-21T12:57:18.578Z,7.9
2023-04-21T12:58:26.873Z,7.9
2023-04-21T12:59:35.204Z,7.9
2023-04-21T13:00:43.786Z,5.8
2023-04-21T13:01:52.185Z,5.8
2023-04-21T13:03:00.655Z,5.8
2023-04-21T13:04:09.497Z,8.3
2023-04-21T13:05:17.408Z,8.3
2023-04-21T13:06:25.745Z,8.3
2023-04-21T13:07:34.360Z,6.9
2023-04-21T13:08:42.704Z,6.9
2023-04-21T13:09:51.025Z,6.9
2023-04-21T13:10:59.674Z,7.6
2023-04-21T13:12:08.032Z,7.6
2023-04-21T13:13:16.385Z,7.6
2023-04-21T13:14:24.906Z,7.4
2023-04-21T13:15:33.254Z,7.4
2023-04-21T13:16:41.673Z,7.4
2023-04-21T13:17:50.188Z,9.7
2023-04-21T13:18:58.595Z,9.7
2023-04-21T13:20:06.913Z,9.7
2023-04-21T13:21:15.406Z,9.1
2023-04-21T13:22:23.756Z,9.1
2023-04-21T13:23:32.167Z,9.1
2023-04-21T13:24:40.732Z,6.9
2023-04-21T13:25:49.069Z,6.9
2023-04-21T13:26:57.432Z,6.9
2023-04-21T13:28:05.981Z,5.7
2023-04-21T13:29:14.360Z,5.7
2023-04-21T13:30:22.681Z,5.7
2023-04-21T13:31:31.282Z,5.2
2023-04-21T13:32:39.586Z,5.2
2023-04-21T13:33:47.921Z,5.2
2023-04-21T13:34:56.468Z,6.3
2023-04-21T13:36:04.838Z,6.3
2023-04-21T13:37:13.174Z,6.3
2023-04-21T13:38:22.063Z,10.5
2023-04-21T13:39:30.719Z,10.5
2023-04-21T13:40:38.729Z,10.5
2023-04-21T13:41:47.289Z,7.7
2023-04-21T13:42:55.643Z,7.7
2023-04-21T13:44:03.966Z,7.7
2023-04-21T13:45:12.565Z,7.9
2023-04-21T13:46:20.888Z,7.9
2023-04-21T13:47:29.240Z,7.9
2023-04-21T13:48:37.764Z,7.5
2023-04-21T13:49:46.101Z,7.5
2023-04-21T13:50:54.416Z,7.5
2023-04-21T13:52:02.990Z,5.2
2023-04-21T13:53:11.341Z,5.2
2023-04-21T13:54:19.673Z,5.2
2023-04-21T13:55:28.255Z,7.3
2023-04-21T13:56:36.609Z,7.3
2023-04-21T13:57:44.931Z,7.3
2023-04-21T13:58:53.465Z,5.1
2023-04-21T14:00:01.861Z,5.1
2023-04-21T14:01:10.231Z,5.1
2023-04-21T14:02:18.781Z,6.2
2023-04-21T14:03:27.171Z,6.2
2023-04-21T14:04:35.589Z,6.2
2023-04-21T14:05:43.946Z,5.7
2023-04-21T14:06:52.320Z,5.7
2023-04-21T14:08:00.625Z,5.7
2023-04-21T14:09:09.209Z,10.9
2023-04-21T14:10:17.549Z,10.9
2023-04-21T14:11:25.904Z,10.9
2023-04-21T14:12:34.477Z,6.5
2023-04-21T14:14:51.147Z,6.5
2023-04-21T14:15:59.715Z,7
2023-04-21T14:17:08.175Z,7
2023-04-21T14:18:16.440Z,7
2023-04-21T14:19:25.005Z,7.3
2023-04-21T14:20:33.312Z,7.3
2023-04-21T14:21:41.685Z,7.3
2023-04-21T14:22:50.278Z,7.8
2023-04-21T14:23:58.559Z,7.8
2023-04-21T14:25:06.917Z,7.8
2023-04-21T14:26:15.434Z,6.6
2023-04-21T14:27:23.788Z,6.6
2023-04-21T14:28:32.120Z,6.6
2023-04-21T14:29:40.656Z,8.5
2023-04-21T14:30:49.378Z,8.5
2023-04-21T14:31:57.899Z,8.5
2023-04-21T14:33:06.297Z,6.8